createdAt,value
2018-12-24T00:08:25.093Z,99775.50
2018-12-24T00:12:32.498Z,99815.12
2018-12-24T00:16:39.928Z,99831.64
2018-12-24T00:20:47.472Z,99858.66
2018-12-24T00:38:15.426Z,99870.47
2018-12-24T00:42:22.462Z,99874.05
2018-12-24T00:46:29.711Z,99884.58
2018-12-24T00:50:37.038Z,99890.14
2018-12-24T00:54:44.477Z,99898.62
2018-12-24T00:58:51.816Z,99921.21
2018-12-24T01:03:00.181Z,99929.31
2018-12-24T01:11:27.844Z,99952.31
2018-12-24T01:15:34.915Z,99959.05
2018-12-24T01:19:44.478Z,99975.17
2018-12-24T01:23:52.120Z,99985.39
2018-12-24T01:28:00.491Z,100019.63
2018-12-24T01:32:07.686Z,100036.81
2018-12-24T01:36:15.393Z,100049.33
2018-12-24T01:40:22.678Z,100066.25
2018-12-24T01:44:30.025Z,100084.48
2018-12-24T01:48:37.382Z,100099.89
2018-12-24T01:52:45.440Z,100127.66
2018-12-24T01:56:52.565Z,100140.66
2018-12-24T02:01:00.172Z,100147.75
2018-12-24T02:05:07.866Z,100147.47
2018-12-24T02:13:41.074Z,100184.88
2018-12-24T02:17:48.118Z,100200.97
2018-12-24T02:21:55.211Z,100199.77
2018-12-24T02:26:02.331Z,100215.28
2018-12-24T02:30:09.608Z,100218.62
2018-12-24T02:34:19.903Z,100221.37
2018-12-24T02:38:27.241Z,100228.25
2018-12-24T02:42:34.289Z,100243.25
2018-12-24T02:46:41.401Z,100255.35
2018-12-24T02:50:48.259Z,100267.27
2018-12-24T02:54:55.331Z,100280.50
2018-12-24T02:59:22.435Z,100287.16
2018-12-24T03:03:50.302Z,100291.56
2018-12-24T03:07:57.844Z,100313.69
2018-12-24T03:12:30.092Z,100327.66
2018-12-24T03:29:51.903Z,100359.00
2018-12-24T03:33:59.143Z,100374.09
2018-12-24T03:38:06.484Z,100389.92
2018-12-24T03:42:13.869Z,100399.20
2018-12-24T03:46:20.951Z,100412.40
2018-12-24T03:50:30.297Z,100427.68
2018-12-24T03:54:58.363Z,100441.26
2018-12-24T04:03:25.105Z,100453.16
2018-12-24T04:07:32.663Z,100456.98
2018-12-24T04:11:40.102Z,100462.12
2018-12-24T04:15:47.441Z,100470.23
2018-12-24T04:19:54.509Z,100476.09
2018-12-24T04:24:01.449Z,100500.89
2018-12-24T04:32:40.623Z,100525.56
2018-12-24T04:36:47.674Z,100535.56
2018-12-24T04:45:12.955Z,100562.31
2018-12-24T04:49:20.137Z,100570.32
2018-12-24T04:53:27.453Z,100579.89
2018-12-24T04:57:34.944Z,100597.76
2018-12-24T05:06:01.320Z,100602.63
2018-12-24T05:10:08.359Z,100614.28
2018-12-24T05:14:35.917Z,100620.56
2018-12-24T05:18:43.049Z,100622.64
2018-12-24T05:27:29.420Z,100637.75
2018-12-24T05:31:36.886Z,100644.70
2018-12-24T05:35:44.648Z,100659.86
2018-12-24T05:39:52.118Z,100678.34
2018-12-24T05:43:59.429Z,100692.27
2018-12-24T05:48:06.889Z,100705.37
2018-12-24T05:52:14.220Z,100714.23
2018-12-24T05:56:21.519Z,100730.55
2018-12-24T06:00:28.895Z,100741.21
2018-12-24T06:04:36.013Z,100742.44
2018-12-24T06:08:43.258Z,100755.63
2018-12-24T06:17:19.448Z,100790.33
2018-12-24T06:21:26.637Z,100802.98
2018-12-24T06:25:34.167Z,100826.57
2018-12-24T06:38:31.076Z,100850.16
2018-12-24T06:42:38.340Z,100873.50
2018-12-24T06:46:47.334Z,100894.95
2018-12-24T06:50:54.389Z,100914.91
2018-12-24T06:55:01.914Z,100930.42
2018-12-24T06:59:10.596Z,100935.82
2018-12-24T07:03:17.767Z,100944.53
2018-12-24T07:07:25.638Z,100951.48
2018-12-24T07:11:32.667Z,100955.97
2018-12-24T07:15:39.914Z,100973.54
2018-12-24T07:19:47.116Z,100981.97
2018-12-24T07:23:54.564Z,100991.84
2018-12-24T07:28:01.819Z,100989.89
2018-12-24T07:32:09.297Z,101010.94
2018-12-24T07:36:16.472Z,101017.59
2018-12-24T07:40:23.907Z,101034.08
2018-12-24T07:44:49.566Z,101042.75
2018-12-24T07:48:56.640Z,101049.63
2018-12-24T07:57:35.346Z,101071.44
2018-12-24T08:01:42.628Z,101080.52
2018-12-24T08:05:49.971Z,101081.84
2018-12-24T08:09:57.874Z,101081.52
2018-12-24T08:14:44.496Z,101087.03
2018-12-24T08:18:51.689Z,101087.42
2018-12-24T08:23:00.525Z,101080.69
2018-12-24T08:27:07.748Z,101093.52
2018-12-24T08:31:16.959Z,101102.16
2018-12-24T08:35:30.167Z,101117.84
2018-12-24T08:44:09.104Z,101127.12
2018-12-24T08:48:16.822Z,101131.43
2018-12-24T08:52:24.077Z,101141.17
2018-12-24T08:56:32.937Z,101145.27
2018-12-24T09:00:59.133Z,101163.66
2018-12-24T09:05:06.456Z,101179.56
2018-12-24T09:09:13.739Z,101180.32
2018-12-24T09:17:43.552Z,101193.56
2018-12-24T09:21:51.264Z,101195.03
2018-12-24T09:25:58.432Z,101206.22
2018-12-24T09:30:24.779Z,101220.41
2018-12-24T09:34:46.221Z,101227.27
2018-12-24T09:39:00.152Z,101225.77
2018-12-24T09:43:46.955Z,101233.79
2018-12-24T09:47:54.834Z,101236.16
2018-12-24T09:52:02.198Z,101243.37
2018-12-24T09:56:12.284Z,101256.30
2018-12-24T10:00:23.969Z,101258.11
2018-12-24T10:04:54.650Z,101262.83
2018-12-24T10:09:07.646Z,101255.73
2018-12-24T10:13:15.476Z,101261.19
2018-12-24T10:17:41.891Z,101269.78
2018-12-24T10:21:49.089Z,101278.94
2018-12-24T10:25:56.251Z,101282.39
2018-12-24T10:30:03.596Z,101291.78
2018-12-24T10:34:11.053Z,101296.05
2018-12-24T10:38:18.248Z,101305.58
2018-12-24T10:42:25.449Z,101306.69
2018-12-24T10:46:32.665Z,101303.65
2018-12-24T10:50:39.924Z,101301.87
2018-12-24T10:54:47.243Z,101303.06
2018-12-24T11:03:14.410Z,101294.86
2018-12-24T11:07:21.533Z,101302.08
2018-12-24T11:11:30.612Z,101308.61
2018-12-24T11:15:37.800Z,101310.56
2018-12-24T11:19:45.233Z,101307.80
2018-12-24T11:23:52.461Z,101304.35
2018-12-24T11:27:59.461Z,101311.59
2018-12-24T11:32:06.629Z,101306.23
2018-12-24T11:36:13.771Z,101296.75
2018-12-24T11:40:21.121Z,101298.07
2018-12-24T11:44:28.025Z,101302.37
2018-12-24T11:48:35.068Z,101302.34
2018-12-24T11:52:42.051Z,101304.13
2018-12-24T11:56:49.251Z,101308.86
2018-12-24T12:05:19.214Z,101315.00
2018-12-24T12:14:05.622Z,101303.48
2018-12-24T12:18:14.519Z,101313.89
2018-12-24T12:22:21.839Z,101312.95
2018-12-24T12:26:30.346Z,101308.75
2018-12-24T12:30:57.516Z,101318.95
2018-12-24T12:39:37.322Z,101323.97
2018-12-24T12:43:44.622Z,101337.64
2018-12-24T12:47:52.314Z,101336.16
2018-12-24T12:51:59.728Z,101340.32
2018-12-24T12:56:09.127Z,101346.13
2018-12-24T13:00:16.403Z,101364.53
2018-12-24T13:04:24.015Z,101375.74
2018-12-24T13:08:31.605Z,101384.41
2018-12-24T13:12:38.741Z,101402.22
2018-12-24T13:21:14.918Z,101418.30
2018-12-24T13:25:22.075Z,101430.83
2018-12-24T13:29:29.807Z,101437.16
2018-12-24T13:38:17.305Z,101453.41
2018-12-24T13:42:24.431Z,101478.47
2018-12-24T13:46:31.693Z,101485.95
2018-12-24T13:50:39.019Z,101485.33
2018-12-24T13:54:46.249Z,101479.20
2018-12-24T13:58:53.597Z,101485.85
2018-12-24T14:03:19.799Z,101512.76
2018-12-24T14:07:45.703Z,101509.05
2018-12-24T14:11:52.600Z,101516.36
2018-12-24T14:16:44.880Z,101517.05
2018-12-24T14:20:51.773Z,101528.98
2018-12-24T14:25:18.772Z,101535.62
2018-12-24T14:29:26.658Z,101544.30
2018-12-24T14:33:53.956Z,101551.05
2018-12-24T14:38:01.144Z,101564.45
2018-12-24T14:46:47.670Z,101586.05
2018-12-24T14:50:54.556Z,101581.47
2018-12-24T14:55:01.580Z,101573.52
2018-12-24T14:59:08.651Z,101577.94
2018-12-24T15:03:15.701Z,101595.73
2018-12-24T15:07:22.635Z,101601.05
2018-12-24T15:11:29.654Z,101613.14
2018-12-24T15:15:36.697Z,101613.61
2018-12-24T15:19:43.701Z,101613.88
2018-12-24T15:23:50.748Z,101634.41
2018-12-24T15:27:57.815Z,101644.70
2018-12-24T15:32:23.936Z,101654.97
2018-12-24T15:36:32.220Z,101659.29
2018-12-24T15:40:58.734Z,101680.87
2018-12-24T15:45:06.041Z,101692.03
2018-12-24T15:49:13.220Z,101695.70
2018-12-24T15:53:21.307Z,101705.25
2018-12-24T15:57:28.195Z,101712.06
2018-12-24T16:01:35.126Z,101716.56
2018-12-24T16:05:42.138Z,101718.59
2018-12-24T16:09:49.352Z,101717.89
2018-12-24T16:18:22.111Z,101728.15
2018-12-24T16:22:29.305Z,101732.50
2018-12-24T16:26:36.306Z,101736.27
2018-12-24T16:35:23.909Z,101735.83
2018-12-24T16:39:30.843Z,101735.42
2018-12-24T16:43:38.074Z,101760.33
2018-12-24T16:47:45.250Z,101770.70
2018-12-24T16:51:52.549Z,101779.90
2018-12-24T16:55:59.580Z,101792.92
2018-12-24T17:00:07.236Z,101792.05
2018-12-24T17:04:33.255Z,101803.98
2018-12-24T17:08:40.572Z,101819.55
2018-12-24T17:12:49.567Z,101826.43
2018-12-24T17:16:56.590Z,101820.00
2018-12-24T17:21:05.209Z,101820.00
2018-12-24T17:25:12.200Z,101822.30
2018-12-24T17:29:19.225Z,101827.30
2018-12-24T17:33:26.216Z,101821.80
2018-12-24T17:37:33.262Z,101815.33
2018-12-24T17:41:40.169Z,101818.09
2018-12-24T17:45:47.108Z,101811.33
2018-12-24T17:49:54.601Z,101806.43
2018-12-24T17:54:06.024Z,101814.26
2018-12-24T18:02:31.700Z,101822.63
2018-12-24T18:06:38.984Z,101827.61
2018-12-24T18:10:45.988Z,101833.46
2018-12-24T18:19:25.365Z,101848.64
2018-12-24T18:23:32.385Z,101854.59
2018-12-24T18:27:39.373Z,101848.41
2018-12-24T18:40:45.032Z,101865.05
2018-12-24T18:44:52.068Z,101879.88
2018-12-24T18:53:31.203Z,101910.87
2018-12-24T18:57:50.972Z,101921.53
2018-12-24T19:01:50.961Z,101936.28
2018-12-24T19:05:58.028Z,101950.82
2018-12-24T19:14:44.379Z,101992.43
2018-12-24T19:18:51.452Z,101980.96
2018-12-24T19:22:59.297Z,101977.30
2018-12-24T19:27:06.261Z,101978.20
2018-12-24T19:31:13.380Z,101997.13
2018-12-24T19:35:20.665Z,102010.14
2018-12-24T19:39:27.886Z,102009.78
2018-12-24T19:43:36.521Z,102019.14
2018-12-24T19:47:49.831Z,102012.20
2018-12-24T19:52:03.271Z,102009.54
2018-12-24T19:56:11.386Z,102012.11
2018-12-24T20:00:20.739Z,102029.22
2018-12-24T20:04:27.811Z,102039.00
2018-12-24T20:13:08.059Z,102035.48
2018-12-24T20:17:17.332Z,102024.86
2018-12-24T20:25:51.887Z,102018.17
2018-12-24T20:34:51.579Z,101996.08
2018-12-24T20:39:18.052Z,101987.41
2018-12-24T20:43:25.211Z,101990.25
2018-12-24T20:47:32.373Z,101998.63
2018-12-24T20:51:41.869Z,101998.23
2018-12-24T21:00:10.332Z,102001.02
2018-12-24T21:04:17.507Z,101998.09
2018-12-24T21:08:24.603Z,102009.17
2018-12-24T21:12:32.248Z,102002.19
2018-12-24T21:16:58.476Z,102006.46
2018-12-24T21:21:05.862Z,101995.24
2018-12-24T21:25:13.145Z,102008.38
2018-12-24T21:29:20.472Z,102022.91
2018-12-24T21:37:48.592Z,102020.08
2018-12-24T21:41:55.863Z,102024.33
2018-12-24T21:46:03.290Z,102027.08
2018-12-24T21:59:02.376Z,102053.95
2018-12-24T22:03:42.537Z,102058.33
2018-12-24T22:07:57.760Z,102063.64
2018-12-24T22:12:05.032Z,102063.61
2018-12-24T22:16:12.095Z,102067.65
2018-12-24T22:24:48.989Z,102055.85
2018-12-24T22:29:15.110Z,102063.41
2018-12-24T22:33:26.992Z,102065.58
2018-12-24T22:37:55.109Z,102059.98
2018-12-24T22:42:04.570Z,102060.42
2018-12-24T22:46:12.266Z,102059.06
2018-12-24T22:50:21.440Z,102072.22
2018-12-24T22:58:48.284Z,102057.08
2018-12-24T23:02:55.730Z,102066.08
2018-12-24T23:07:03.843Z,102073.89
2018-12-24T23:15:51.075Z,102078.43
2018-12-24T23:19:58.179Z,102089.62
2018-12-24T23:24:05.959Z,102087.45
2018-12-24T23:28:13.065Z,102089.66
2018-12-24T23:32:20.307Z,102087.55
2018-12-24T23:36:27.610Z,102090.16
2018-12-24T23:40:55.579Z,102089.66
2018-12-24T23:45:03.751Z,102077.06
2018-12-24T23:53:42.198Z,102075.76
2018-12-24T23:57:49.761Z,102072.69
